Time;durP1;ratioP1;P1;durP2;ratioP2;P2;SDS_P1;SDS_P2;PMS_P1;PMS_P2;Temp;Humidity;BMP_temperature;BMP_pressure;BME280_temperature;BME280_humidity;BME280_pressure;Samples;Min_cycle;Max_cycle;Signal;HPM_P1;HPM_P2
2021/05/31 00:04:25;;;;;;;9.27;6.35;;;;;;;8.32;69.13;100923.59;10553163;28;20042;-71
2021/05/31 00:09:27;;;;;;;6.65;6.10;;;;;;;8.12;69.30;100925.50;10522397;28;20052;-72
2021/05/31 00:14:29;;;;;;;6.68;6.18;;;;;;;8.30;69.00;100927.09;10537756;28;20036;-72
2021/05/31 00:19:31;;;;;;;6.03;5.57;;;;;;;8.24;68.90;100914.94;10539506;28;20052;-74
2021/05/31 00:24:34;;;;;;;6.18;5.65;;;;;;;8.14;69.15;100909.75;10554368;28;20336;-71
2021/05/31 00:29:36;;;;;;;5.85;5.45;;;;;;;8.03;69.34;100902.88;10549866;28;20040;-73
2021/05/31 00:34:38;;;;;;;6.72;6.13;;;;;;;7.96;69.86;100897.69;10552956;28;20096;-72
2021/05/31 00:39:39;;;;;;;5.75;5.28;;;;;;;7.99;69.17;100898.53;10533385;28;20047;-72
2021/05/31 00:44:41;;;;;;;5.93;5.43;;;;;;;7.80;69.80;100900.41;10551812;28;20040;-72
2021/05/31 00:49:43;;;;;;;4.78;4.47;;;;;;;7.65;69.92;100902.25;10552095;28;20053;-72
2021/05/31 00:54:45;;;;;;;6.13;5.72;;;;;;;7.30;71.41;100913.75;10533712;28;20048;-72
2021/05/31 00:59:46;;;;;;;6.97;6.47;;;;;;;7.25;71.68;100928.59;10551502;28;20039;-72
2021/05/31 01:04:48;;;;;;;6.38;5.82;;;;;;;7.40;71.30;100920.72;10551584;28;20043;-72
2021/05/31 01:10:00;;;;;;;6.07;5.63;;;;;;;7.58;69.89;100918.00;10550855;28;20047;-72
2021/05/31 01:15:08;;;;;;;5.90;5.40;;;;;;;7.42;70.36;100907.63;10551808;28;20097;-72
2021/05/31 01:20:29;;;;;;;7.25;6.68;;;;;;;7.47;71.25;100918.91;10550352;28;20487;-71
2021/05/31 01:25:53;;;;;;;6.88;6.28;;;;;;;7.31;71.96;100905.06;10550892;28;20044;-72
2021/05/31 01:30:57;;;;;;;7.32;6.82;;;;;;;7.32;71.88;100901.56;10551121;28;20397;-73
2021/05/31 01:36:01;;;;;;;7.05;6.45;;;;;;;7.11;72.33;100897.28;10550180;28;20126;-73
2021/05/31 01:41:04;;;;;;;8.18;7.68;;;;;;;6.82;73.16;100894.78;10548919;28;20040;-73
2021/05/31 01:46:07;;;;;;;7.03;6.53;;;;;;;6.89;72.79;100883.41;10531383;28;20513;-71
2021/05/31 01:51:09;;;;;;;7.10;6.63;;;;;;;6.78;72.76;100891.31;10549013;28;20535;-72
2021/05/31 01:56:12;;;;;;;6.82;6.32;;;;;;;7.14;71.72;100885.94;10530594;28;20059;-71
2021/05/31 02:01:14;;;;;;;6.65;6.15;;;;;;;6.86;72.21;100886.03;10548423;28;20481;-71
2021/05/31 02:06:16;;;;;;;6.95;6.47;;;;;;;7.11;71.17;100883.34;10530821;28;20056;-72
2021/05/31 02:11:36;;;;;;;6.63;6.03;;;;;;;7.15;70.77;100869.38;10530107;28;20414;-71
2021/05/31 02:16:46;;;;;;;6.22;5.82;;;;;;;6.73;72.08;100881.72;10548548;28;20082;-72
2021/05/31 02:21:50;;;;;;;6.72;6.32;;;;;;;6.78;72.00;100874.75;10547899;28;20048;-72
2021/05/31 02:26:53;;;;;;;7.50;7.00;;;;;;;7.07;71.25;100875.50;10548054;28;20048;-72
2021/05/31 02:31:55;;;;;;;6.80;6.22;;;;;;;6.63;72.05;100874.78;10547025;28;20043;-71
2021/05/31 02:36:57;;;;;;;7.57;6.97;;;;;;;6.50;72.51;100872.19;10546647;28;20496;-72
2021/05/31 02:41:58;;;;;;;7.57;6.88;;;;;;;6.44;72.05;100877.44;10512178;28;20070;-70
2021/05/31 02:47:00;;;;;;;6.63;6.20;;;;;;;6.51;72.00;100876.56;10512693;28;20044;-71
2021/05/31 02:52:02;;;;;;;7.93;7.10;;;;;;;6.86;69.64;100872.97;10546177;28;20089;-72
2021/05/31 02:57:04;;;;;;;6.97;6.07;;;;;;;6.79;70.07;100877.34;10528164;28;20409;-72
2021/05/31 03:02:05;;;;;;;7.30;6.70;;;;;;;6.41;70.87;100869.59;10511131;28;20052;-71
2021/05/31 03:07:07;;;;;;;6.22;5.72;;;;;;;6.49;70.80;100865.22;10546688;28;20122;-72
2021/05/31 03:12:09;;;;;;;6.60;6.07;;;;;;;6.26;71.75;100869.63;10545780;28;20412;-72
2021/05/31 03:17:11;;;;;;;8.32;7.53;;;;;;;6.35;71.74;100869.59;10546629;28;20044;-71
2021/05/31 03:22:12;;;;;;;6.80;6.30;;;;;;;6.05;72.82;100873.09;10545342;28;20044;-72
2021/05/31 03:27:15;;;;;;;7.03;6.53;;;;;;;6.05;72.88;100880.94;11839861;22;20032;-81
2021/05/31 03:32:17;;;;;;;6.32;5.75;;;;;;;6.18;72.98;100876.56;10553185;28;20043;-80
2021/05/31 03:37:19;;;;;;;7.00;6.45;;;;;;;6.26;73.09;100877.44;10542500;28;20048;-80
2021/05/31 03:42:20;;;;;;;7.72;6.90;;;;;;;6.31;72.63;100870.47;10543154;28;20082;-80
2021/05/31 03:47:22;;;;;;;7.60;7.10;;;;;;;6.45;72.46;100875.69;10528482;28;20471;-81
2021/05/31 03:52:24;;;;;;;7.43;6.93;;;;;;;6.51;72.69;100875.69;10547088;28;20048;-80
2021/05/31 03:57:27;;;;;;;7.25;6.65;;;;;;;6.70;71.94;100874.75;10566121;28;20478;-80
2021/05/31 04:02:30;;;;;;;6.75;6.25;;;;;;;6.71;72.55;100883.47;10565610;28;20036;-81
2021/05/31 04:12:53;;;;;;;6.95;6.45;;;;;;;6.92;71.69;100883.41;10576422;28;20040;-80
2021/05/31 04:17:54;;;;;;;6.47;6.00;;;;;;;7.17;70.69;100883.31;10588900;28;20108;-79
2021/05/31 04:22:56;;;;;;;6.50;6.10;;;;;;;7.27;69.44;100874.56;10572858;28;20065;-80
2021/05/31 04:27:58;;;;;;;6.28;5.78;;;;;;;7.69;68.32;100883.03;10578700;28;20047;-80
2021/05/31 04:32:59;;;;;;;6.00;5.55;;;;;;;7.69;68.32;100883.91;10559543;28;20044;-81
2021/05/31 04:38:02;;;;;;;5.78;5.38;;;;;;;8.05;67.29;100884.50;10546112;28;20074;-80
2021/05/31 04:43:03;;;;;;;6.00;5.50;;;;;;;8.10;67.41;100887.97;10526439;28;20050;-80
2021/05/31 04:48:05;;;;;;;6.57;6.05;;;;;;;7.83;67.28;100881.19;10562196;28;20040;-80
2021/05/31 04:53:07;;;;;;;6.40;6.00;;;;;;;7.81;67.43;100881.22;10547495;28;20047;-81
2021/05/31 04:58:09;;;;;;;6.75;6.35;;;;;;;7.93;67.67;100877.66;10551640;28;20048;-81
2021/05/31 05:03:11;;;;;;;6.13;5.65;;;;;;;8.15;66.39;100880.09;10573345;28;20040;-81
2021/05/31 05:08:13;;;;;;;6.30;5.70;;;;;;;8.99;64.65;100869.66;10548141;28;20130;-80
2021/05/31 05:13:18;;;;;;;6.18;5.78;;;;;;;8.91;64.60;100858.38;10532059;28;20044;-79
2021/05/31 05:18:19;;;;;;;5.82;5.40;;;;;;;9.16;64.15;100852.81;10572849;28;20052;-79
2021/05/31 05:23:21;;;;;;;5.32;5.03;;;;;;;9.85;63.20;100853.59;10553851;28;20036;-79
2021/05/31 05:28:28;;;;;;;6.32;5.55;;;;;;;10.35;61.65;100856.28;10572413;28;20044;-80
2021/05/31 05:33:32;;;;;;;4.82;4.50;;;;;;;10.93;60.08;100849.91;10560498;28;20062;-80
2021/05/31 05:39:07;;;;;;;5.57;5.18;;;;;;;11.69;58.88;100849.19;10579253;28;20048;-82
2021/05/31 05:44:33;;;;;;;5.35;4.85;;;;;;;12.21;56.26;100847.91;10565112;28;20070;-84
2021/05/31 05:49:32;;;;;;;5.22;4.82;;;;;;;12.46;55.89;100851.66;10572557;28;20063;-81
2021/05/31 05:54:34;;;;;;;5.32;4.93;;;;;;;13.22;55.56;100845.13;10586592;28;20048;-82
2021/05/31 05:59:36;;;;;;;4.90;4.55;;;;;;;13.51;54.25;100850.44;10573136;28;20054;-82
2021/05/31 06:04:40;;;;;;;5.55;5.05;;;;;;;13.61;53.49;100849.22;10555853;28;20051;-82
2021/05/31 06:09:42;;;;;;;5.63;4.10;;;;;;;13.71;53.71;100848.94;10571415;28;20052;-81
2021/05/31 06:14:44;;;;;;;4.80;4.40;;;;;;;14.27;52.40;100847.09;10567976;28;20032;-80
2021/05/31 06:19:46;;;;;;;4.90;4.60;;;;;;;15.08;51.63;100844.19;10573560;28;20100;-83
2021/05/31 06:24:48;;;;;;;4.75;4.13;;;;;;;15.85;48.66;100846.56;10537924;28;20044;-81
2021/05/31 06:29:50;;;;;;;5.63;5.13;;;;;;;15.27;50.25;100849.69;10557400;28;20044;-79
2021/05/31 06:34:52;;;;;;;5.43;4.95;;;;;;;14.89;50.64;100851.09;10575415;28;20039;-82
2021/05/31 06:39:54;;;;;;;4.28;3.95;;;;;;;15.57;50.01;100847.59;10576701;28;20040;-81
2021/05/31 06:44:55;;;;;;;5.05;4.38;;;;;;;15.85;49.51;100842.13;10573809;28;20111;-82
2021/05/31 06:49:57;;;;;;;6.45;4.10;;;;;;;16.55;47.97;100842.72;10559755;28;20052;-81
2021/05/31 06:54:58;;;;;;;4.38;3.97;;;;;;;16.54;48.40;100835.69;10578808;28;20044;-82
2021/05/31 07:00:00;;;;;;;4.82;4.43;;;;;;;17.03;46.95;100829.06;10561891;28;20143;-81
2021/05/31 07:05:03;;;;;;;3.80;3.30;;;;;;;17.30;47.23;100831.38;10559517;28;20036;-82
2021/05/31 07:10:07;;;;;;;3.88;3.53;;;;;;;17.45;46.45;100829.81;10583279;28;20051;-82
2021/05/31 07:15:18;;;;;;;4.25;3.90;;;;;;;17.69;46.01;100833.94;10567344;28;20028;-82
2021/05/31 07:20:27;;;;;;;4.00;3.58;;;;;;;17.86;46.50;100817.19;10573034;28;20040;-82
2021/05/31 07:25:31;;;;;;;3.67;2.78;;;;;;;17.87;45.94;100821.56;10564204;28;20040;-84
2021/05/31 07:30:37;;;;;;;4.68;2.90;;;;;;;18.27;45.57;100819.56;10560510;28;20064;-82
2021/05/31 07:35:42;;;;;;;3.58;3.28;;;;;;;18.09;46.04;100824.00;10559183;28;20069;-83
2021/05/31 07:40:43;;;;;;;4.85;2.40;;;;;;;18.26;44.95;100817.84;10579966;28;20055;-82
2021/05/31 07:45:45;;;;;;;2.05;1.75;;;;;;;18.00;44.14;100816.50;10582032;28;20064;-82
2021/05/31 07:50:47;;;;;;;2.15;1.95;;;;;;;18.34;43.97;100819.16;10567567;28;20088;-82
2021/05/31 07:55:48;;;;;;;3.10;1.77;;;;;;;18.12;43.10;100816.75;10575419;28;20099;-81
2021/05/31 08:00:52;;;;;;;2.78;1.40;;;;;;;18.38;42.63;100815.41;10555271;28;20048;-82
2021/05/31 08:05:59;;;;;;;3.20;1.63;;;;;;;18.94;41.50;100818.69;10568575;28;20047;-82
2021/05/31 08:11:04;;;;;;;2.40;1.45;;;;;;;18.37;42.69;100816.38;10569710;28;20046;-85
2021/05/31 08:16:07;;;;;;;1.67;1.40;;;;;;;18.58;43.23;100802.84;10566764;28;20055;-83
2021/05/31 08:21:09;;;;;;;1.98;1.67;;;;;;;18.64;43.88;100806.06;10584842;28;20044;-84
2021/05/31 08:26:10;;;;;;;3.35;1.83;;;;;;;18.93;43.10;100800.16;10566762;28;20104;-82
2021/05/31 08:31:12;;;;;;;2.65;1.75;;;;;;;19.50;42.61;100793.38;10591619;28;20040;-81
2021/05/31 08:36:14;;;;;;;2.35;1.50;;;;;;;19.56;40.93;100794.81;10576993;28;20062;-82
2021/05/31 08:41:16;;;;;;;2.42;1.60;;;;;;;20.48;40.87;100785.00;10550269;28;20051;-81
2021/05/31 08:46:18;;;;;;;1.60;1.50;;;;;;;20.63;39.51;100789.41;10561115;28;20058;-81
2021/05/31 08:51:21;;;;;;;1.55;1.27;;;;;;;20.28;39.33;100785.31;10588610;28;20036;-83
2021/05/31 08:56:23;;;;;;;1.17;1.00;;;;;;;20.52;38.02;100783.84;10595003;28;20024;-79
2021/05/31 09:01:26;;;;;;;1.88;1.23;;;;;;;19.79;38.39;100780.19;10599434;28;20057;-82
2021/05/31 09:06:28;;;;;;;3.70;0.95;;;;;;;18.55;40.64;100787.03;10581457;28;20024;-80
2021/05/31 09:11:30;;;;;;;1.52;1.17;;;;;;;19.19;39.23;100783.59;10598273;28;20051;-82
2021/05/31 09:16:36;;;;;;;1.30;1.10;;;;;;;20.15;39.05;100778.03;10559419;28;20085;-82
2021/05/31 09:21:39;;;;;;;1.05;0.95;;;;;;;19.94;37.50;100765.13;10593632;28;20044;-80
2021/05/31 09:26:49;;;;;;;1.40;1.25;;;;;;;19.60;40.79;100767.03;10569666;28;20040;-81
2021/05/31 09:32:01;;;;;;;1.35;1.25;;;;;;;20.01;41.37;100762.00;10589785;28;20067;-83
2021/05/31 09:37:04;;;;;;;1.92;1.20;;;;;;;20.83;38.82;100765.94;10585321;28;20112;-81
2021/05/31 09:42:14;;;;;;;2.03;1.38;;;;;;;20.23;38.85;100776.72;10590194;28;20127;-82
2021/05/31 09:47:27;;;;;;;4.10;1.33;;;;;;;19.32;40.97;100783.75;10559896;28;20028;-83
2021/05/31 09:52:28;;;;;;;5.93;1.40;;;;;;;18.84;40.63;100770.38;10591585;28;20052;-81
2021/05/31 09:57:35;;;;;;;1.60;1.10;;;;;;;19.28;40.75;100763.56;10593940;28;20052;-82
2021/05/31 10:02:54;;;;;;;;;;;;;;;19.96;39.31;100750.72;10556101;28;20052;-79
2021/05/31 10:13:03;;;;;;;1.50;1.10;;;;;;;19.74;36.91;100744.94;10588090;28;20039;-84
2021/05/31 10:18:06;;;;;;;2.75;1.10;;;;;;;20.07;37.26;100737.59;10592158;28;20053;-82
2021/05/31 10:23:10;;;;;;;1.23;1.13;;;;;;;20.85;35.47;100732.81;10591955;28;20095;-81
2021/05/31 10:28:16;;;;;;;1.90;1.20;;;;;;;20.33;35.86;100730.69;10574371;28;20036;-82
2021/05/31 10:33:23;;;;;;;2.47;1.30;;;;;;;20.70;35.92;100733.78;10587610;28;20513;-82
2021/05/31 10:38:34;;;;;;;1.77;1.38;;;;;;;20.47;37.66;100731.66;10588420;28;20051;-82
2021/05/31 10:43:43;;;;;;;2.13;1.27;;;;;;;19.90;38.34;100733.28;10588579;28;20056;-83
2021/05/31 10:48:51;;;;;;;1.33;1.20;;;;;;;20.36;36.29;100718.94;10587278;28;20028;-82
2021/05/31 10:53:53;;;;;;;4.88;1.30;;;;;;;20.68;37.16;100721.47;10558986;28;20032;-81
2021/05/31 10:58:57;;;;;;;1.33;1.20;;;;;;;19.80;37.39;100718.78;10587775;28;20036;-81
2021/05/31 11:04:00;;;;;;;3.55;1.30;;;;;;;19.91;37.72;100712.78;10569289;28;20028;-82
2021/05/31 11:09:10;;;;;;;4.22;1.65;;;;;;;20.01;36.88;100707.75;10566465;28;20044;-81
2021/05/31 11:14:12;;;;;;;1.60;1.23;;;;;;;20.13;36.93;100707.88;10562252;28;20354;-81
2021/05/31 11:19:13;;;;;;;2.55;1.30;;;;;;;20.77;35.59;100704.88;10579886;28;20044;-82
2021/05/31 11:24:20;;;;;;;1.55;1.20;;;;;;;20.71;36.25;100706.09;10575657;28;20066;-82
2021/05/31 11:29:22;;;;;;;2.05;1.15;;;;;;;21.28;34.90;100705.13;10555828;28;20434;-80
2021/05/31 11:34:25;;;;;;;1.73;1.10;;;;;;;20.71;35.39;100695.41;10540312;28;20048;-79
2021/05/31 11:39:32;;;;;;;3.00;1.48;;;;;;;21.45;33.46;100691.53;10563971;28;20413;-80
2021/05/31 11:44:35;;;;;;;2.90;1.30;;;;;;;21.66;37.15;100689.22;10539339;28;20063;-79
2021/05/31 11:49:38;;;;;;;1.58;1.10;;;;;;;21.83;34.79;100688.94;10555576;28;20044;-80
2021/05/31 11:54:41;;;;;;;4.10;1.30;;;;;;;21.37;33.38;100680.47;10557664;28;20040;-79
2021/05/31 11:59:45;;;;;;;2.22;1.30;;;;;;;20.75;35.76;100680.91;10539765;28;20056;-80
2021/05/31 12:04:51;;;;;;;1.90;1.13;;;;;;;21.09;36.64;100674.25;10556148;28;20044;-80
2021/05/31 12:09:53;;;;;;;1.45;1.27;;;;;;;21.00;35.28;100671.31;10554336;28;20119;-79
2021/05/31 12:14:56;;;;;;;2.03;1.08;;;;;;;22.01;34.89;100665.41;10558078;28;20039;-79
2021/05/31 12:19:58;;;;;;;4.25;1.20;;;;;;;21.31;34.92;100662.13;10540459;28;20155;-81
2021/05/31 12:25:01;;;;;;;1.67;1.23;;;;;;;21.16;33.85;100651.50;10586324;28;20040;-80
2021/05/31 12:30:06;;;;;;;2.70;1.10;;;;;;;21.67;35.90;100648.13;10554489;28;20040;-79
2021/05/31 12:35:09;;;;;;;3.55;1.23;;;;;;;21.85;33.81;100641.50;10556298;28;20032;-81
2021/05/31 12:40:14;;;;;;;1.33;1.23;;;;;;;22.02;33.54;100643.03;10552657;28;20052;-80
2021/05/31 12:45:17;;;;;;;1.17;1.08;;;;;;;22.25;33.97;100636.06;10552731;28;20100;-80
2021/05/31 12:50:33;;;;;;;1.70;1.17;;;;;;;22.08;33.27;100633.69;10551950;28;20093;-79
2021/05/31 12:55:38;;;;;;;3.08;1.27;;;;;;;22.75;33.48;100636.06;10534010;28;20076;-79
2021/05/31 13:00:40;;;;;;;1.80;1.00;;;;;;;22.21;32.75;100639.94;10536243;28;20043;-81
2021/05/31 13:05:48;;;;;;;1.25;1.00;;;;;;;21.01;34.44;100630.25;10559012;28;20074;-80
2021/05/31 13:10:56;;;;;;;2.03;1.17;;;;;;;20.03;34.77;100633.81;10536527;28;20040;-80
2021/05/31 13:15:58;;;;;;;3.80;1.38;;;;;;;19.95;35.55;100631.59;10555548;28;20036;-80
2021/05/31 13:21:21;;;;;;;2.40;1.45;;;;;;;20.45;34.78;100626.72;10555773;28;20048;-80
2021/05/31 13:26:25;;;;;;;2.65;1.40;;;;;;;20.24;36.33;100610.28;10539560;28;20409;-79
2021/05/31 13:31:28;;;;;;;1.20;1.10;;;;;;;20.78;35.59;100605.06;10537438;28;20110;-81
2021/05/31 13:36:30;;;;;;;1.95;1.38;;;;;;;21.51;34.74;100608.19;10540092;28;20050;-79
2021/05/31 13:41:52;;;;;;;2.38;1.30;;;;;;;21.79;33.23;100595.59;10544536;28;20051;-81
2021/05/31 13:46:53;;;;;;;2.22;1.30;;;;;;;21.10;34.03;100589.56;10530837;28;20112;-80
2021/05/31 13:51:55;;;;;;;2.83;1.35;;;;;;;21.37;35.48;100584.19;10528757;28;20055;-80
2021/05/31 13:56:57;;;;;;;1.38;1.02;;;;;;;21.21;33.95;100586.19;10548413;28;20048;-79
2021/05/31 14:01:58;;;;;;;2.85;1.27;;;;;;;21.89;35.23;100585.97;10564718;28;20412;-79
2021/05/31 14:07:00;;;;;;;1.27;0.90;;;;;;;22.16;33.19;100584.03;10566648;28;20097;-81
2021/05/31 14:12:02;;;;;;;2.58;1.05;;;;;;;22.01;32.81;100585.09;10545121;28;20070;-80
2021/05/31 14:17:04;;;;;;;2.38;1.30;;;;;;;21.83;33.24;100575.69;10541830;28;20044;-79
2021/05/31 14:22:06;;;;;;;5.68;1.15;;;;;;;21.89;32.10;100572.56;10543243;28;20101;-79
2021/05/31 14:27:11;;;;;;;2.90;1.15;;;;;;;22.14;31.34;100559.19;10559925;28;20048;-79
2021/05/31 14:32:13;;;;;;;1.90;1.40;;;;;;;22.42;33.03;100560.72;10559102;28;20054;-79
2021/05/31 14:37:15;;;;;;;2.50;1.33;;;;;;;22.57;33.22;100561.41;10524966;28;20072;-82
2021/05/31 14:42:17;;;;;;;1.88;1.10;;;;;;;22.87;30.72;100546.72;10556090;28;20028;-80
2021/05/31 14:47:19;;;;;;;4.63;1.30;;;;;;;22.77;31.24;100543.03;10594855;28;20057;-80
2021/05/31 14:52:21;;;;;;;1.88;1.30;;;;;;;22.57;32.47;100539.13;10594830;28;20051;-80
2021/05/31 14:57:23;;;;;;;5.45;1.27;;;;;;;22.84;31.79;100536.22;10566906;28;20078;-79
2021/05/31 15:02:25;;;;;;;1.63;1.30;;;;;;;22.05;32.31;100537.56;10546691;28;20046;-81
2021/05/31 15:07:27;;;;;;;2.90;1.45;;;;;;;21.76;32.88;100534.25;10581832;28;20028;-79
2021/05/31 15:12:29;;;;;;;3.97;1.42;;;;;;;22.70;31.55;100526.53;10568888;28;20052;-79
2021/05/31 15:17:31;;;;;;;2.10;1.27;;;;;;;22.56;31.63;100522.22;10569383;28;20081;-80
2021/05/31 15:22:42;;;;;;;3.28;1.10;;;;;;;22.97;31.63;100528.16;10578234;28;20044;-80
2021/05/31 15:27:44;;;;;;;1.90;1.20;;;;;;;21.78;33.05;100527.84;10561771;28;20056;-80
2021/05/31 15:32:46;;;;;;;1.42;0.90;;;;;;;22.61;31.77;100517.34;10566689;28;20044;-80
2021/05/31 15:37:48;;;;;;;1.88;1.00;;;;;;;22.22;32.39;100514.94;10585720;28;20035;-78
2021/05/31 15:42:51;;;;;;;3.00;1.10;;;;;;;22.66;31.73;100506.28;10605615;22;20048;-83
2021/05/31 15:47:54;;;;;;;2.08;1.20;;;;;;;23.45;30.50;100498.53;10624507;28;20127;-84
2021/05/31 15:52:56;;;;;;;0.90;0.85;;;;;;;24.04;29.93;100488.47;10627994;28;20063;-83
2021/05/31 15:57:58;;;;;;;1.85;1.27;;;;;;;23.22;30.77;100495.81;10642592;22;20039;-71
2021/05/31 16:02:59;;;;;;;2.78;1.20;;;;;;;22.26;32.62;100495.84;10567922;28;20047;-71
2021/05/31 16:08:03;;;;;;;2.65;1.20;;;;;;;21.99;32.59;100503.19;10585332;28;20070;-70
2021/05/31 16:13:10;;;;;;;2.65;1.10;;;;;;;21.80;33.22;100499.16;10566727;28;20050;-70
2021/05/31 16:18:12;;;;;;;1.40;1.00;;;;;;;22.46;31.72;100493.53;10585878;28;20069;-70
2021/05/31 16:28:32;;;;;;;1.23;1.13;;;;;;;20.51;35.40;100506.22;10585126;28;20077;-71
2021/05/31 16:33:34;;;;;;;4.38;2.20;;;;;;;20.37;35.54;100499.94;10584005;28;20043;-72
2021/05/31 16:38:36;;;;;;;3.60;1.30;;;;;;;20.56;36.06;100496.94;10587584;28;20063;-72
2021/05/31 16:43:38;;;;;;;2.20;1.45;;;;;;;20.28;36.42;100481.84;10585942;28;20040;-71
2021/05/31 16:48:40;;;;;;;2.15;1.50;;;;;;;20.95;34.15;100483.69;10584399;28;20503;-72
2021/05/31 16:53:43;;;;;;;2.03;1.40;;;;;;;20.64;33.98;100473.25;10587661;28;20092;-72
2021/05/31 16:58:45;;;;;;;1.65;1.30;;;;;;;20.34;35.14;100480.56;10586645;28;20407;-71
2021/05/31 17:03:46;;;;;;;3.25;1.65;;;;;;;20.21;34.99;100477.00;10566945;28;20079;-72
2021/05/31 17:08:48;;;;;;;1.92;1.10;;;;;;;19.85;34.92;100470.38;10586095;28;20084;-72
2021/05/31 17:19:28;;;;;;;3.17;1.20;;;;;;;19.70;37.11;100474.88;10593662;28;20067;-72
2021/05/31 17:24:30;;;;;;;2.38;1.23;;;;;;;19.45;37.27;100470.19;10574319;28;20044;-73
2021/05/31 17:29:39;;;;;;;2.75;1.38;;;;;;;19.42;37.64;100476.53;10591888;28;20047;-72
2021/05/31 17:34:41;;;;;;;2.50;1.20;;;;;;;19.20;37.08;100473.47;10574764;28;20082;-72
2021/05/31 17:39:43;;;;;;;3.03;1.40;;;;;;;19.27;37.48;100466.84;10593413;28;20100;-72
2021/05/31 17:44:46;;;;;;;1.38;1.25;;;;;;;19.08;38.71;100472.44;10597416;28;20122;-71
2021/05/31 17:49:47;;;;;;;1.88;1.48;;;;;;;18.94;38.37;100461.72;10572029;28;20044;-71
2021/05/31 17:54:49;;;;;;;1.55;1.30;;;;;;;19.20;37.26;100453.97;10572497;28;20389;-71
2021/05/31 17:59:52;;;;;;;3.75;1.25;;;;;;;19.06;37.78;100463.66;10575164;28;20052;-71
2021/05/31 18:04:58;;;;;;;2.78;1.33;;;;;;;18.93;38.58;100459.16;10595207;28;20519;-72
2021/05/31 18:10:01;;;;;;;4.43;2.80;;;;;;;18.86;38.64;100464.84;10575802;28;20078;-72
2021/05/31 18:15:06;;;;;;;4.68;1.98;;;;;;;18.82;38.99;100459.81;10593361;28;20044;-71
2021/05/31 18:20:10;;;;;;;1.50;1.40;;;;;;;18.47;39.95;100464.50;10595093;28;20050;-73
2021/05/31 18:25:18;;;;;;;2.00;1.60;;;;;;;18.25;41.21;100460.41;10596571;28;20382;-73
2021/05/31 18:30:26;;;;;;;2.13;1.92;;;;;;;18.04;42.45;100467.78;10599915;28;20118;-73
2021/05/31 18:35:47;;;;;;;2.70;2.00;;;;;;;17.86;42.96;100469.66;10599539;28;20040;-72
2021/05/31 18:40:50;;;;;;;3.03;2.08;;;;;;;17.78;43.04;100471.88;10596746;28;20058;-73
2021/05/31 18:45:53;;;;;;;2.72;2.22;;;;;;;17.84;43.31;100470.66;10575691;28;20130;-72
2021/05/31 18:51:03;;;;;;;2.50;2.30;;;;;;;17.42;44.18;100468.50;10605460;28;20063;-73
2021/05/31 18:56:08;;;;;;;1.58;1.40;;;;;;;17.46;43.86;100475.38;10577575;28;20112;-72
2021/05/31 19:01:10;;;;;;;1.70;1.50;;;;;;;17.33;44.17;100469.84;10601406;28;20044;-71
2021/05/31 19:06:16;;;;;;;;;;;;;;;17.20;44.17;100468.78;10580379;28;20112;-73
2021/05/31 19:11:18;;;;;;;1.90;1.25;;;;;;;17.18;44.37;100479.50;10596034;28;20014;-72
2021/05/31 19:16:19;;;;;;;2.53;1.40;;;;;;;16.90;44.79;100483.53;10605801;28;20040;-72
2021/05/31 19:21:53;;;;;;;2.35;1.73;;;;;;;16.47;46.37;100492.78;10583315;28;20054;-73
2021/05/31 19:27:09;;;;;;;3.38;2.00;;;;;;;16.06;47.93;100495.59;10582550;28;20047;-72
2021/05/31 19:32:11;;;;;;;2.35;1.75;;;;;;;15.80;48.35;100502.13;10595875;28;20122;-72
2021/05/31 19:37:12;;;;;;;2.88;1.92;;;;;;;15.77;49.25;100510.22;10571685;28;20065;-71
2021/05/31 19:42:14;;;;;;;2.80;2.05;;;;;;;16.06;48.87;100513.31;10572211;28;20481;-73
2021/05/31 19:47:16;;;;;;;2.15;1.98;;;;;;;15.46;50.69;100525.75;10589967;28;20441;-73
2021/05/31 19:52:18;;;;;;;2.85;2.20;;;;;;;15.36;51.08;100526.16;10594759;28;20031;-72
2021/05/31 20:02:56;;;;;;;3.15;2.08;;;;;;;15.55;50.75;100528.00;10495979;28;20056;-72
2021/05/31 20:07:58;;;;;;;2.78;1.95;;;;;;;15.33;51.49;100525.41;10571001;28;20039;-72
2021/05/31 20:13:01;;;;;;;3.60;2.90;;;;;;;15.08;52.50;100531.75;10586720;28;20043;-72
2021/05/31 20:18:03;;;;;;;2.65;2.33;;;;;;;14.81;53.16;100530.28;10574239;28;20401;-71
2021/05/31 20:23:07;;;;;;;4.85;3.03;;;;;;;15.07;51.87;100534.47;10573866;28;20051;-72
2021/05/31 20:28:21;;;;;;;3.08;2.60;;;;;;;14.70;52.71;100533.38;10555583;28;20072;-71
2021/05/31 20:33:24;;;;;;;3.53;2.20;;;;;;;14.58;53.61;100534.72;10576074;28;20040;-71
2021/05/31 20:38:26;;;;;;;4.07;2.47;;;;;;;14.27;53.42;100526.25;10598710;28;20515;-72
2021/05/31 20:43:28;;;;;;;3.78;2.50;;;;;;;14.05;54.02;100535.00;10594305;28;20050;-71
2021/05/31 20:48:30;;;;;;;5.35;2.33;;;;;;;13.90;54.67;100535.59;10596579;28;20047;-71
2021/05/31 20:53:31;;;;;;;3.58;2.67;;;;;;;13.63;55.42;100537.44;10575877;28;20493;-71
2021/05/31 20:58:33;;;;;;;3.10;2.60;;;;;;;13.63;55.43;100533.06;10597989;28;20043;-71
2021/05/31 21:03:41;;;;;;;4.38;2.80;;;;;;;13.53;55.89;100538.72;10596392;28;20051;-71
2021/05/31 21:08:46;;;;;;;2.63;2.40;;;;;;;13.46;55.79;100538.09;10575516;28;20416;-71
2021/05/31 21:13:49;;;;;;;2.70;2.40;;;;;;;13.24;56.71;100531.84;10594216;28;20411;-71
2021/05/31 21:19:01;;;;;;;3.33;2.80;;;;;;;13.24;56.68;100527.41;10592905;28;20085;-72
2021/05/31 21:24:14;;;;;;;3.38;2.95;;;;;;;12.97;57.75;100530.94;10548981;28;20036;-72
2021/05/31 21:29:16;;;;;;;3.55;3.25;;;;;;;12.71;58.52;100522.13;10591300;28;20055;-70
2021/05/31 21:34:17;;;;;;;2.97;2.67;;;;;;;12.64;58.79;100523.25;10590820;28;20036;-71
2021/05/31 21:39:22;;;;;;;4.35;3.58;;;;;;;12.64;59.15;100528.50;10572778;28;20044;-71
2021/05/31 21:44:24;;;;;;;4.45;2.72;;;;;;;12.70;58.98;100530.09;10603836;22;20084;-70
2021/05/31 21:49:25;;;;;;;3.58;3.20;;;;;;;13.02;59.93;100537.81;10589618;28;20044;-70
2021/05/31 21:54:27;;;;;;;3.42;3.05;;;;;;;12.82;59.39;100546.38;10588832;28;20377;-70
2021/05/31 21:59:29;;;;;;;3.85;3.55;;;;;;;12.71;59.34;100543.25;10588506;28;20044;-70
2021/05/31 22:04:31;;;;;;;4.05;3.25;;;;;;;12.72;59.42;100542.31;10587615;28;20046;-70
2021/05/31 22:09:32;;;;;;;4.72;3.30;;;;;;;12.40;59.50;100542.50;10588635;28;20039;-70
2021/05/31 22:14:38;;;;;;;3.63;3.33;;;;;;;12.42;59.76;100549.44;10586977;28;20062;-70
2021/05/31 22:19:58;;;;;;;3.72;3.20;;;;;;;12.18;59.54;100544.94;10587206;28;20093;-70
2021/05/31 22:25:06;;;;;;;3.33;3.03;;;;;;;12.09;59.92;100544.28;10588129;28;20054;-70
2021/05/31 22:35:31;;;;;;;3.67;3.28;;;;;;;11.80;60.73;100542.47;10589176;27;20047;-70
2021/05/31 22:40:39;;;;;;;3.30;3.00;;;;;;;11.53;61.99;100548.50;10587193;28;20063;-69
2021/05/31 23:07:43;;;;;;;3.85;3.55;;;;;;;11.19;63.17;100548.53;10456084;28;20048;-70
2021/05/31 23:12:44;;;;;;;3.10;2.65;;;;;;;11.10;63.67;100558.38;10456131;28;20106;-70
2021/05/31 23:17:46;;;;;;;3.70;3.40;;;;;;;11.54;63.45;100552.84;10457105;28;20053;-69
2021/05/31 23:22:48;;;;;;;3.67;3.38;;;;;;;11.45;62.10;100550.47;10456028;28;20080;-70
2021/05/31 23:27:52;;;;;;;3.15;2.85;;;;;;;10.92;63.69;100545.72;10565040;28;20066;-70
2021/05/31 23:32:54;;;;;;;3.47;3.10;;;;;;;11.25;63.02;100540.50;10585252;28;20126;-69
2021/05/31 23:37:55;;;;;;;3.92;3.05;;;;;;;10.90;63.69;100544.03;10585371;28;20048;-70
2021/05/31 23:42:57;;;;;;;2.92;2.60;;;;;;;10.73;64.19;100534.78;10585679;28;20416;-70
2021/05/31 23:47:59;;;;;;;3.42;3.13;;;;;;;11.04;63.18;100537.50;10583857;28;20052;-71
2021/05/31 23:53:00;;;;;;;2.83;2.63;;;;;;;10.55;64.16;100537.84;10583501;28;20047;-71
2021/05/31 23:58:03;;;;;;;3.45;2.83;;;;;;;10.47;64.92;100537.16;10585409;28;20051;-70
